createdAt,value
2018-05-31T00:00:01.235Z,20.48
2018-05-31T00:01:03.852Z,20.48
2018-05-31T00:02:01.187Z,20.48
2018-05-31T00:03:01.333Z,20.48
2018-05-31T00:04:01.351Z,20.48
2018-05-31T00:05:01.266Z,20.48
2018-05-31T00:06:01.132Z,20.48
2018-05-31T00:07:01.149Z,20.48
2018-05-31T00:08:01.282Z,20.48
2018-05-31T00:09:01.214Z,20.48
2018-05-31T00:10:03.621Z,20.48
2018-05-31T00:11:01.341Z,20.48
2018-05-31T00:12:01.340Z,20.48
2018-05-31T00:13:01.509Z,20.48
2018-05-31T00:14:01.264Z,20.48
2018-05-31T00:15:01.064Z,20.48
2018-05-31T00:16:01.249Z,20.47
2018-05-31T00:17:01.410Z,20.48
2018-05-31T00:18:01.182Z,20.47
2018-05-31T00:19:03.191Z,20.47
2018-05-31T00:20:01.210Z,20.47
2018-05-31T00:21:01.048Z,20.47
2018-05-31T00:22:01.300Z,20.47
2018-05-31T00:23:01.228Z,20.47
2018-05-31T00:24:01.140Z,20.47
2018-05-31T00:25:01.396Z,20.47
2018-05-31T00:26:01.180Z,20.47
2018-05-31T00:27:01.168Z,20.47
2018-05-31T00:28:02.583Z,20.47
2018-05-31T00:29:01.131Z,20.47
2018-05-31T00:30:01.221Z,20.47
2018-05-31T00:31:01.232Z,20.47
2018-05-31T00:32:01.195Z,20.47
2018-05-31T00:33:01.423Z,20.47
2018-05-31T00:34:01.203Z,20.47
2018-05-31T00:35:01.251Z,20.47
2018-05-31T00:36:01.296Z,20.46
2018-05-31T00:37:01.540Z,20.46
2018-05-31T00:38:01.282Z,20.46
2018-05-31T00:39:01.382Z,20.47
2018-05-31T00:40:01.326Z,20.47
2018-05-31T00:41:01.359Z,20.46
2018-05-31T00:42:01.187Z,20.46
2018-05-31T00:43:01.328Z,20.46
2018-05-31T00:44:01.398Z,20.47
2018-05-31T00:45:01.337Z,20.47
2018-05-31T00:46:01.244Z,20.46
2018-05-31T00:47:04.174Z,20.46
2018-05-31T00:48:01.446Z,20.46
2018-05-31T00:49:01.387Z,20.47
2018-05-31T00:50:01.283Z,20.46
2018-05-31T00:51:01.244Z,20.46
2018-05-31T00:52:01.412Z,20.46
2018-05-31T00:53:01.279Z,20.46
2018-05-31T00:54:01.300Z,20.46
2018-05-31T00:55:01.211Z,20.46
2018-05-31T00:56:04.080Z,20.46
2018-05-31T00:57:01.286Z,20.46
2018-05-31T00:58:01.565Z,20.46
2018-05-31T00:59:01.322Z,20.46
2018-05-31T01:00:01.389Z,20.46
2018-05-31T01:01:01.478Z,20.46
2018-05-31T01:02:01.403Z,20.46
2018-05-31T01:03:01.513Z,20.46
2018-05-31T01:04:11.336Z,20.46
2018-05-31T01:05:03.746Z,20.46
2018-05-31T01:06:01.338Z,20.46
2018-05-31T01:07:01.341Z,20.46
2018-05-31T01:08:01.363Z,20.46
2018-05-31T01:09:01.411Z,20.46
2018-05-31T01:10:01.379Z,20.46
2018-05-31T01:11:01.379Z,20.46
2018-05-31T01:12:01.890Z,20.47
2018-05-31T01:13:01.367Z,20.45
2018-05-31T01:14:02.399Z,20.46
2018-05-31T01:15:01.414Z,20.46
2018-05-31T01:16:01.478Z,20.46
2018-05-31T01:17:01.403Z,20.46
2018-05-31T01:18:01.341Z,20.46
2018-05-31T01:19:01.415Z,20.46
2018-05-31T01:20:01.430Z,20.46
2018-05-31T01:21:01.380Z,20.45
2018-05-31T01:22:01.454Z,20.45
2018-05-31T01:23:01.665Z,20.46
2018-05-31T01:24:01.374Z,20.45
2018-05-31T01:25:01.456Z,20.45
2018-05-31T01:26:01.453Z,20.45
2018-05-31T01:27:01.032Z,20.45
2018-05-31T01:28:01.502Z,20.45
2018-05-31T01:29:01.015Z,20.46
2018-05-31T01:30:01.431Z,20.45
2018-05-31T01:31:01.448Z,20.45
2018-05-31T01:32:01.693Z,20.46
2018-05-31T01:33:01.401Z,20.45
2018-05-31T01:34:01.563Z,20.45
2018-05-31T01:35:01.383Z,20.45
2018-05-31T01:36:01.424Z,20.45
2018-05-31T01:37:01.186Z,20.45
2018-05-31T01:38:01.034Z,20.45
2018-05-31T01:39:01.449Z,20.45
2018-05-31T01:40:01.507Z,20.45
2018-05-31T01:41:01.149Z,20.45
2018-05-31T01:42:04.049Z,20.45
2018-05-31T01:43:01.599Z,20.45
2018-05-31T01:44:01.444Z,20.45
2018-05-31T01:45:01.551Z,20.45
2018-05-31T01:46:01.542Z,20.45
2018-05-31T01:47:01.558Z,20.45
2018-05-31T01:48:01.118Z,20.45
2018-05-31T01:49:01.119Z,20.44
2018-05-31T01:50:01.149Z,20.45
2018-05-31T01:51:04.007Z,20.45
2018-05-31T01:52:01.032Z,20.44
2018-05-31T01:53:01.221Z,20.45
2018-05-31T01:54:01.554Z,20.45
2018-05-31T01:55:01.043Z,20.44
2018-05-31T01:56:01.179Z,20.45
2018-05-31T01:57:01.608Z,20.44
2018-05-31T01:58:01.052Z,20.44
2018-05-31T01:59:01.711Z,20.44
2018-05-31T02:00:03.983Z,20.44
2018-05-31T02:01:01.640Z,20.44
2018-05-31T02:02:01.641Z,20.44
2018-05-31T02:03:01.143Z,20.44
2018-05-31T02:04:01.316Z,20.44
2018-05-31T02:05:01.207Z,20.43
2018-05-31T02:06:01.141Z,20.44
2018-05-31T02:07:01.244Z,20.44
2018-05-31T02:08:01.337Z,20.44
2018-05-31T02:09:03.290Z,20.44
2018-05-31T02:10:01.200Z,20.43
2018-05-31T02:11:01.144Z,20.44
2018-05-31T02:12:01.268Z,20.44
2018-05-31T02:13:01.145Z,20.44
2018-05-31T02:14:01.312Z,20.44
2018-05-31T02:15:01.140Z,20.44
2018-05-31T02:16:01.228Z,20.44
2018-05-31T02:17:01.641Z,20.44
2018-05-31T02:18:02.987Z,20.44
2018-05-31T02:19:01.211Z,20.43
2018-05-31T02:20:01.015Z,20.43
2018-05-31T02:21:01.127Z,20.44
2018-05-31T02:22:01.005Z,20.43
2018-05-31T02:23:01.110Z,20.43
2018-05-31T02:24:01.211Z,20.43
2018-05-31T02:25:01.222Z,20.43
2018-05-31T02:26:01.110Z,20.43
2018-05-31T02:27:02.493Z,20.43
2018-05-31T02:28:01.157Z,20.43
2018-05-31T02:29:01.028Z,20.43
2018-05-31T02:30:01.362Z,20.43
2018-05-31T02:31:01.328Z,20.43
2018-05-31T02:32:01.085Z,20.43
2018-05-31T02:33:01.112Z,20.43
2018-05-31T02:34:01.260Z,20.43
2018-05-31T02:35:01.295Z,20.43
2018-05-31T02:36:02.736Z,20.43
2018-05-31T02:37:01.028Z,20.43
2018-05-31T02:38:01.047Z,20.43
2018-05-31T02:39:01.104Z,20.43
2018-05-31T02:40:01.227Z,20.43
2018-05-31T02:41:01.129Z,20.43
2018-05-31T02:42:01.113Z,20.43
2018-05-31T02:43:01.299Z,20.43
2018-05-31T02:44:01.238Z,20.43
2018-05-31T02:45:01.447Z,20.43
2018-05-31T02:46:01.107Z,20.43
2018-05-31T02:47:01.216Z,20.43
2018-05-31T02:48:01.295Z,20.43
2018-05-31T02:49:01.365Z,20.42
2018-05-31T02:50:01.174Z,20.43
2018-05-31T02:51:01.183Z,20.43
2018-05-31T02:52:01.258Z,20.42
2018-05-31T02:53:01.295Z,20.43
2018-05-31T02:54:01.092Z,20.42
2018-05-31T02:55:01.091Z,20.42
2018-05-31T02:56:33.146Z,20.42
2018-05-31T02:57:01.095Z,20.43
2018-05-31T02:58:01.163Z,20.43
2018-05-31T02:59:01.274Z,20.42
2018-05-31T03:00:01.150Z,20.42
2018-05-31T03:01:01.131Z,20.42
2018-05-31T03:02:01.287Z,20.42
2018-05-31T03:03:01.313Z,20.42
2018-05-31T03:04:04.555Z,20.42
2018-05-31T03:05:01.167Z,20.42
2018-05-31T03:06:01.184Z,20.42
2018-05-31T03:07:01.371Z,20.42
2018-05-31T03:08:01.164Z,20.42
2018-05-31T03:09:01.240Z,20.43
2018-05-31T03:10:01.189Z,20.42
2018-05-31T03:11:01.197Z,20.42
2018-05-31T03:12:01.199Z,20.43
2018-05-31T03:13:01.266Z,20.42
2018-05-31T03:14:01.199Z,20.42
2018-05-31T03:15:01.224Z,20.42
2018-05-31T03:16:01.302Z,20.42
2018-05-31T03:17:01.373Z,20.42
2018-05-31T03:18:01.216Z,20.42
2018-05-31T03:19:01.346Z,20.42
2018-05-31T03:20:01.533Z,20.42
2018-05-31T03:21:01.128Z,20.42
2018-05-31T03:22:04.311Z,20.42
2018-05-31T03:23:01.278Z,20.43
2018-05-31T03:24:01.268Z,20.42
2018-05-31T03:25:01.426Z,20.42
2018-05-31T03:26:01.362Z,20.42
2018-05-31T03:27:01.271Z,20.42
2018-05-31T03:28:01.364Z,20.42
2018-05-31T03:29:01.420Z,20.42
2018-05-31T03:30:01.320Z,20.43
2018-05-31T03:31:03.101Z,20.42
2018-05-31T03:32:01.319Z,20.42
2018-05-31T03:33:01.323Z,20.42
2018-05-31T03:34:01.408Z,20.42
2018-05-31T03:35:01.317Z,20.42
2018-05-31T03:36:01.350Z,20.43
2018-05-31T03:37:01.341Z,20.42
2018-05-31T03:38:01.340Z,20.42
2018-05-31T03:39:01.354Z,20.42
2018-05-31T03:40:01.372Z,20.42
2018-05-31T03:41:01.320Z,20.42
2018-05-31T03:42:01.348Z,20.42
2018-05-31T03:43:01.392Z,20.42
2018-05-31T03:44:01.322Z,20.42
2018-05-31T03:45:01.425Z,20.42
2018-05-31T03:46:01.381Z,20.42
2018-05-31T03:47:01.395Z,20.42
2018-05-31T03:48:01.280Z,20.42
2018-05-31T03:49:01.362Z,20.42
2018-05-31T03:50:01.050Z,20.42
2018-05-31T03:51:01.380Z,20.42
2018-05-31T03:52:01.429Z,20.42
2018-05-31T03:53:01.071Z,20.42
2018-05-31T03:54:01.468Z,20.42
2018-05-31T03:55:01.463Z,20.42
2018-05-31T03:56:01.032Z,20.42
2018-05-31T03:57:01.066Z,20.42
2018-05-31T03:58:01.363Z,20.41
2018-05-31T03:59:01.331Z,20.42
2018-05-31T04:00:01.378Z,20.41
2018-05-31T04:01:01.511Z,20.41
2018-05-31T04:02:01.456Z,20.41
2018-05-31T04:03:01.440Z,20.42
2018-05-31T04:04:01.463Z,20.41
2018-05-31T04:05:01.128Z,20.41
2018-05-31T04:06:11.058Z,20.42
2018-05-31T04:07:01.518Z,20.41
2018-05-31T04:08:01.129Z,20.42
2018-05-31T04:09:01.409Z,20.42
2018-05-31T04:10:01.464Z,20.41
2018-05-31T04:11:01.535Z,20.41
2018-05-31T04:12:01.130Z,20.42
2018-05-31T04:13:01.957Z,20.41
2018-05-31T04:14:01.506Z,20.42
2018-05-31T04:15:01.444Z,20.41
2018-05-31T04:16:01.122Z,20.41
2018-05-31T04:17:01.472Z,20.41
2018-05-31T04:18:00.998Z,20.41
2018-05-31T04:19:01.093Z,20.41
2018-05-31T04:20:00.960Z,20.41
2018-05-31T04:21:01.126Z,20.41
2018-05-31T04:22:01.147Z,20.41
2018-05-31T04:23:01.593Z,20.41
2018-05-31T04:24:01.575Z,20.41
2018-05-31T04:25:01.631Z,20.41
2018-05-31T04:26:01.114Z,20.41
2018-05-31T04:27:00.984Z,20.41
2018-05-31T04:28:01.093Z,20.41
2018-05-31T04:29:01.033Z,20.41
2018-05-31T04:30:01.147Z,20.41
2018-05-31T04:31:01.233Z,20.41
2018-05-31T04:32:01.186Z,20.41
2018-05-31T04:33:01.104Z,20.41
2018-05-31T04:34:01.155Z,20.41
2018-05-31T04:35:01.207Z,20.41
2018-05-31T04:36:01.141Z,20.41
2018-05-31T04:37:01.107Z,20.41
2018-05-31T04:38:11.107Z,20.41
2018-05-31T04:39:01.052Z,20.41
2018-05-31T04:40:01.261Z,20.41
2018-05-31T04:41:01.082Z,20.41
2018-05-31T04:42:01.676Z,20.41
2018-05-31T04:43:01.196Z,20.41
2018-05-31T04:44:01.230Z,20.41
2018-05-31T04:45:01.221Z,20.41
2018-05-31T04:46:01.121Z,20.41
2018-05-31T04:47:01.177Z,20.41
2018-05-31T04:48:01.057Z,20.41
2018-05-31T04:49:01.140Z,20.41
2018-05-31T04:50:01.403Z,20.41
2018-05-31T04:51:02.196Z,20.41
2018-05-31T04:52:00.958Z,20.41
2018-05-31T04:53:01.187Z,20.41
2018-05-31T04:54:01.287Z,20.41
2018-05-31T04:55:01.077Z,20.41
2018-05-31T04:56:01.150Z,20.41
2018-05-31T04:57:01.125Z,20.41
2018-05-31T04:58:01.242Z,20.41
2018-05-31T04:59:01.128Z,20.41
2018-05-31T05:00:01.808Z,20.41
2018-05-31T05:01:00.981Z,20.41
2018-05-31T05:02:01.022Z,20.41
2018-05-31T05:03:01.747Z,20.41
2018-05-31T05:04:01.188Z,20.41
2018-05-31T05:05:01.202Z,20.41
2018-05-31T05:06:01.207Z,20.41
2018-05-31T05:07:01.291Z,20.41
2018-05-31T05:08:01.495Z,20.41
2018-05-31T05:09:02.401Z,20.41
2018-05-31T05:10:01.008Z,20.41
2018-05-31T05:11:01.036Z,20.41
2018-05-31T05:12:01.213Z,20.41
2018-05-31T05:13:01.192Z,20.41
2018-05-31T05:14:01.163Z,20.41
2018-05-31T05:15:01.115Z,20.41
2018-05-31T05:16:01.008Z,20.41
2018-05-31T05:17:01.184Z,20.41
2018-05-31T05:18:02.805Z,20.41
2018-05-31T05:19:01.179Z,20.4
2018-05-31T05:20:01.148Z,20.41
2018-05-31T05:21:01.067Z,20.41
2018-05-31T05:22:01.113Z,20.4
2018-05-31T05:23:01.076Z,20.41
2018-05-31T05:24:01.319Z,20.41
2018-05-31T05:25:01.352Z,20.4
2018-05-31T05:26:01.076Z,20.41
2018-05-31T05:27:02.504Z,20.41
2018-05-31T05:28:01.154Z,20.4
2018-05-31T05:29:01.214Z,20.4
2018-05-31T05:30:01.125Z,20.41
2018-05-31T05:31:01.248Z,20.4
2018-05-31T05:32:01.215Z,20.4
2018-05-31T05:33:01.164Z,20.41
2018-05-31T05:34:01.191Z,20.4
2018-05-31T05:35:01.367Z,20.41
2018-05-31T05:36:02.931Z,20.4
2018-05-31T05:37:01.268Z,20.4
2018-05-31T05:38:01.128Z,20.4
2018-05-31T05:39:01.124Z,20.4
2018-05-31T05:40:01.249Z,20.4
2018-05-31T05:41:01.254Z,20.4
2018-05-31T05:42:01.186Z,20.4
2018-05-31T05:43:01.163Z,20.4
2018-05-31T05:44:01.284Z,20.4
2018-05-31T05:45:03.423Z,20.41
2018-05-31T05:46:01.249Z,20.4
2018-05-31T05:47:01.309Z,20.4
2018-05-31T05:48:01.199Z,20.4
2018-05-31T05:49:01.717Z,20.4
2018-05-31T05:50:01.253Z,20.41
2018-05-31T05:51:01.234Z,20.4
2018-05-31T05:52:01.288Z,20.4
2018-05-31T05:53:01.237Z,20.4
2018-05-31T05:54:03.762Z,20.4
2018-05-31T05:55:01.307Z,20.39
2018-05-31T05:56:01.262Z,20.4
2018-05-31T05:57:01.302Z,20.4
2018-05-31T05:58:01.442Z,20.4
2018-05-31T05:59:01.355Z,20.4
2018-05-31T06:00:01.349Z,20.39
2018-05-31T06:01:01.268Z,20.39
2018-05-31T06:02:01.282Z,20.4
2018-05-31T06:03:03.858Z,20.4
2018-05-31T06:04:01.288Z,20.39
2018-05-31T06:05:01.311Z,20.4
2018-05-31T06:06:01.271Z,20.4
2018-05-31T06:07:01.340Z,20.39
2018-05-31T06:08:01.251Z,20.4
2018-05-31T06:09:01.352Z,20.39
2018-05-31T06:10:01.753Z,20.39
2018-05-31T06:11:01.397Z,20.39
2018-05-31T06:12:04.271Z,20.4
2018-05-31T06:13:01.489Z,20.39
2018-05-31T06:14:01.534Z,20.39
2018-05-31T06:15:01.373Z,20.39
2018-05-31T06:16:01.330Z,20.39
2018-05-31T06:17:01.179Z,20.39
2018-05-31T06:18:01.360Z,20.39
2018-05-31T06:19:01.339Z,20.39
2018-05-31T06:20:01.258Z,20.39
2018-05-31T06:21:00.924Z,20.39
2018-05-31T06:22:01.362Z,20.39
2018-05-31T06:23:01.397Z,20.39
2018-05-31T06:24:01.442Z,20.39
2018-05-31T06:25:01.593Z,20.39
2018-05-31T06:26:01.078Z,20.39
2018-05-31T06:27:01.015Z,20.39
2018-05-31T06:28:01.373Z,20.39
2018-05-31T06:29:01.509Z,20.39
2018-05-31T06:30:00.982Z,20.4
2018-05-31T06:31:01.332Z,20.39
2018-05-31T06:32:01.318Z,20.4
2018-05-31T06:33:01.427Z,20.39
2018-05-31T06:34:01.405Z,20.39
2018-05-31T06:35:01.426Z,20.4
2018-05-31T06:36:00.979Z,20.4
2018-05-31T06:37:01.416Z,20.4
2018-05-31T06:38:01.074Z,20.39
2018-05-31T06:39:01.023Z,20.4
2018-05-31T06:40:01.440Z,20.4
2018-05-31T06:41:00.995Z,20.4
2018-05-31T06:42:01.194Z,20.4
2018-05-31T06:43:01.488Z,20.39
2018-05-31T06:44:01.031Z,20.4
2018-05-31T06:45:01.045Z,20.4
2018-05-31T06:46:01.479Z,20.39
2018-05-31T06:47:01.084Z,20.4
2018-05-31T06:48:01.485Z,20.4
2018-05-31T06:49:01.015Z,20.39
2018-05-31T06:50:01.404Z,20.4
2018-05-31T06:51:01.070Z,20.4
2018-05-31T06:52:01.009Z,20.4
2018-05-31T06:53:00.958Z,20.4
2018-05-31T06:54:00.918Z,20.4
2018-05-31T06:55:01.057Z,20.4
2018-05-31T06:56:01.080Z,20.4
2018-05-31T06:57:00.938Z,20.4
2018-05-31T06:58:01.027Z,20.4
2018-05-31T06:59:01.025Z,20.4
2018-05-31T07:00:01.092Z,20.4
2018-05-31T07:01:01.148Z,20.4
2018-05-31T07:02:01.151Z,20.4
2018-05-31T07:03:00.884Z,20.4
2018-05-31T07:04:01.173Z,20.4
2018-05-31T07:05:01.171Z,20.4
2018-05-31T07:06:01.024Z,20.4
2018-05-31T07:07:01.171Z,20.4
2018-05-31T07:08:00.886Z,20.4
2018-05-31T07:09:00.886Z,20.4
2018-05-31T07:10:01.242Z,20.4
2018-05-31T07:11:01.567Z,20.4
2018-05-31T07:12:00.929Z,20.4
2018-05-31T07:13:01.078Z,20.4
2018-05-31T07:14:01.015Z,20.4
2018-05-31T07:15:01.078Z,20.4
2018-05-31T07:16:01.112Z,20.4
2018-05-31T07:17:01.211Z,20.4
2018-05-31T07:18:01.245Z,20.4
2018-05-31T07:19:01.173Z,20.4
2018-05-31T07:20:00.920Z,20.4
2018-05-31T07:21:00.960Z,20.4
2018-05-31T07:22:01.011Z,20.4
2018-05-31T07:23:00.938Z,20.41
2018-05-31T07:24:01.668Z,20.4
2018-05-31T07:25:01.064Z,20.4
2018-05-31T07:26:01.036Z,20.4
2018-05-31T07:27:00.864Z,20.4
2018-05-31T07:28:00.958Z,20.4
2018-05-31T07:29:01.262Z,20.4
2018-05-31T07:30:01.165Z,20.4
2018-05-31T07:31:00.997Z,20.39
2018-05-31T07:32:01.088Z,20.4
2018-05-31T07:33:01.033Z,20.4
2018-05-31T07:34:01.015Z,20.4
2018-05-31T07:35:01.084Z,20.39
2018-05-31T07:36:01.721Z,20.4
2018-05-31T07:37:01.272Z,20.4
2018-05-31T07:38:01.087Z,20.4
2018-05-31T07:39:00.871Z,20.4
2018-05-31T07:40:01.173Z,20.4
2018-05-31T07:41:01.136Z,20.4
2018-05-31T07:42:01.231Z,20.4
2018-05-31T07:43:01.147Z,20.4
2018-05-31T07:44:01.198Z,20.4
2018-05-31T07:45:01.405Z,20.4
2018-05-31T07:46:00.909Z,20.4
2018-05-31T07:47:01.023Z,20.4
2018-05-31T07:48:00.983Z,20.4
2018-05-31T07:49:01.175Z,20.4
2018-05-31T07:50:00.958Z,20.4
2018-05-31T07:51:01.061Z,20.4
2018-05-31T07:52:01.081Z,20.4
2018-05-31T07:53:01.051Z,20.4
2018-05-31T07:54:01.029Z,20.4
2018-05-31T07:55:00.970Z,20.4
2018-05-31T07:56:01.005Z,20.4
2018-05-31T07:57:01.258Z,20.41
2018-05-31T07:58:01.600Z,20.4
2018-05-31T07:59:01.002Z,20.4
2018-05-31T08:00:00.998Z,20.4
2018-05-31T08:01:01.057Z,20.4
2018-05-31T08:02:01.160Z,20.4
2018-05-31T08:03:01.092Z,20.4
2018-05-31T08:04:01.148Z,20.4
2018-05-31T08:05:01.025Z,20.4
2018-05-31T08:06:01.625Z,20.4
2018-05-31T08:07:01.145Z,20.4
2018-05-31T08:08:00.995Z,20.4
2018-05-31T08:09:01.114Z,20.41
2018-05-31T08:10:01.204Z,20.4
2018-05-31T08:11:01.123Z,20.4
2018-05-31T08:12:01.252Z,20.4
2018-05-31T08:13:01.081Z,20.4
2018-05-31T08:14:01.092Z,20.41
2018-05-31T08:15:01.079Z,20.4
2018-05-31T08:16:01.082Z,20.41
2018-05-31T08:17:01.079Z,20.41
2018-05-31T08:18:01.083Z,20.41
2018-05-31T08:19:01.092Z,20.41
2018-05-31T08:20:01.109Z,20.41
2018-05-31T08:21:01.314Z,20.41
2018-05-31T08:22:01.310Z,20.41
2018-05-31T08:23:01.229Z,20.41
2018-05-31T08:24:01.179Z,20.41
2018-05-31T08:25:01.287Z,20.41
2018-05-31T08:26:01.157Z,20.41
2018-05-31T08:27:01.171Z,20.41
2018-05-31T08:28:01.293Z,20.4
2018-05-31T08:29:01.167Z,20.41
2018-05-31T08:30:01.206Z,20.4
2018-05-31T08:31:01.202Z,20.41
2018-05-31T08:32:01.150Z,20.41
2018-05-31T08:33:01.194Z,20.41
2018-05-31T08:34:01.371Z,20.4
2018-05-31T08:35:01.223Z,20.4
2018-05-31T08:36:01.267Z,20.41
2018-05-31T08:37:01.200Z,20.41
2018-05-31T08:38:01.258Z,20.41
2018-05-31T08:39:01.229Z,20.41
2018-05-31T08:40:01.232Z,20.41
2018-05-31T08:41:01.286Z,20.41
2018-05-31T08:42:01.282Z,20.41
2018-05-31T08:43:01.271Z,20.41
2018-05-31T08:44:01.559Z,20.41
2018-05-31T08:45:01.239Z,20.41
2018-05-31T08:46:01.301Z,20.41
2018-05-31T08:47:01.310Z,20.41
2018-05-31T08:48:01.198Z,20.41
2018-05-31T08:49:01.324Z,20.41
2018-05-31T08:50:00.918Z,20.41
2018-05-31T08:51:01.923Z,20.41
2018-05-31T08:52:01.339Z,20.41
2018-05-31T08:53:01.344Z,20.41
2018-05-31T08:54:01.357Z,20.41
2018-05-31T08:55:01.297Z,20.41
2018-05-31T08:56:01.259Z,20.41
2018-05-31T08:57:00.929Z,20.41
2018-05-31T08:58:01.339Z,20.41
2018-05-31T08:59:00.910Z,20.41
2018-05-31T09:00:01.413Z,20.41
2018-05-31T09:01:00.923Z,20.41
2018-05-31T09:02:01.374Z,20.41
2018-05-31T09:03:01.354Z,20.41
2018-05-31T09:04:01.344Z,20.41
2018-05-31T09:05:01.275Z,20.41
2018-05-31T09:06:00.950Z,20.41
2018-05-31T09:07:01.479Z,20.41
2018-05-31T09:08:01.295Z,20.4
2018-05-31T09:09:01.421Z,20.39
2018-05-31T09:10:01.469Z,20.41
2018-05-31T09:11:00.993Z,20.41
2018-05-31T09:12:00.944Z,20.43
2018-05-31T09:13:01.038Z,20.45
2018-05-31T09:14:01.321Z,20.47
2018-05-31T09:15:00.907Z,20.48
2018-05-31T09:16:01.389Z,20.5
2018-05-31T09:17:01.703Z,20.51
2018-05-31T09:18:01.078Z,20.53
2018-05-31T09:19:01.071Z,20.53
2018-05-31T09:20:01.052Z,20.53
2018-05-31T09:21:01.399Z,20.56
2018-05-31T09:22:01.766Z,20.55
2018-05-31T09:23:00.956Z,20.57
2018-05-31T09:24:01.435Z,20.58
2018-05-31T09:25:01.019Z,20.58
2018-05-31T09:26:00.849Z,20.59
2018-05-31T09:27:01.080Z,20.6
2018-05-31T09:28:00.987Z,20.61
2018-05-31T09:29:01.116Z,20.63
2018-05-31T09:30:00.984Z,20.64
2018-05-31T09:31:01.132Z,20.64
2018-05-31T09:32:00.958Z,20.65
2018-05-31T09:33:00.829Z,20.66
2018-05-31T09:34:01.079Z,20.66
2018-05-31T09:35:01.217Z,20.67
2018-05-31T09:36:00.861Z,20.67
2018-05-31T09:37:00.829Z,20.68
2018-05-31T09:38:01.256Z,20.69
2018-05-31T09:39:00.901Z,20.7
2018-05-31T09:40:00.870Z,20.7
2018-05-31T09:41:01.096Z,20.71
2018-05-31T09:42:00.938Z,20.71
2018-05-31T09:43:00.998Z,20.71
2018-05-31T09:44:00.948Z,20.72
2018-05-31T09:45:01.058Z,20.73
2018-05-31T09:46:00.975Z,20.74
2018-05-31T09:47:01.212Z,20.74
2018-05-31T09:48:00.989Z,20.76
2018-05-31T09:49:01.027Z,20.76
2018-05-31T09:50:01.348Z,20.77
2018-05-31T09:51:01.195Z,20.77
2018-05-31T09:52:01.052Z,20.77
2018-05-31T09:53:01.163Z,20.77
2018-05-31T09:54:01.136Z,20.79
2018-05-31T09:55:00.929Z,20.79
2018-05-31T09:56:01.108Z,20.79
2018-05-31T09:57:00.935Z,20.8
2018-05-31T09:58:01.063Z,20.81
2018-05-31T09:59:00.976Z,20.81
2018-05-31T10:00:00.968Z,20.82
2018-05-31T10:01:01.061Z,20.81
2018-05-31T10:02:01.198Z,20.82
2018-05-31T10:03:00.854Z,20.81
2018-05-31T10:04:00.961Z,20.82
2018-05-31T10:05:01.030Z,20.82
2018-05-31T10:06:01.113Z,20.83
2018-05-31T10:07:00.970Z,20.84
2018-05-31T10:08:00.922Z,20.85
2018-05-31T10:09:00.866Z,20.84
2018-05-31T10:10:00.882Z,20.83
2018-05-31T10:11:00.952Z,20.83
2018-05-31T10:12:01.067Z,20.83
2018-05-31T10:13:00.931Z,20.83
2018-05-31T10:14:01.128Z,20.82
2018-05-31T10:15:00.932Z,20.82
2018-05-31T10:16:00.999Z,20.82
2018-05-31T10:17:01.066Z,20.81
2018-05-31T10:18:01.146Z,20.8
2018-05-31T10:19:00.989Z,20.79
2018-05-31T10:20:00.933Z,20.8
2018-05-31T10:21:00.963Z,20.8
2018-05-31T10:22:00.926Z,20.8
2018-05-31T10:23:01.106Z,20.81
2018-05-31T10:24:00.944Z,20.82
2018-05-31T10:25:01.072Z,20.83
2018-05-31T10:26:01.170Z,20.83
2018-05-31T10:27:01.014Z,20.84
2018-05-31T10:28:01.060Z,20.84
2018-05-31T10:29:01.167Z,20.85
2018-05-31T10:30:01.241Z,20.86
2018-05-31T10:31:01.343Z,20.86
2018-05-31T10:32:01.174Z,20.86
2018-05-31T10:33:02.112Z,20.88
2018-05-31T10:34:01.213Z,20.89
2018-05-31T10:35:01.114Z,20.89
2018-05-31T10:36:01.333Z,20.9
2018-05-31T10:37:02.090Z,20.89
2018-05-31T10:38:01.383Z,20.89
2018-05-31T10:39:01.478Z,20.89
2018-05-31T10:40:01.344Z,20.86
2018-05-31T10:41:01.213Z,20.87
2018-05-31T10:42:01.412Z,20.87
2018-05-31T10:43:01.419Z,20.87
2018-05-31T10:44:01.195Z,20.88
2018-05-31T10:45:01.177Z,20.87
2018-05-31T10:46:01.331Z,20.87
2018-05-31T10:47:01.110Z,20.89
2018-05-31T10:48:01.182Z,20.96
2018-05-31T10:49:01.089Z,20.96
2018-05-31T10:50:01.430Z,20.96
2018-05-31T10:51:01.213Z,20.95
2018-05-31T10:52:01.231Z,20.96
2018-05-31T10:53:01.503Z,20.95
2018-05-31T10:54:01.272Z,20.96
2018-05-31T10:55:01.508Z,20.96
2018-05-31T10:56:01.312Z,20.96
2018-05-31T10:57:01.363Z,20.98
2018-05-31T10:58:01.285Z,20.97
2018-05-31T10:59:01.232Z,20.98
2018-05-31T11:00:01.365Z,20.98
2018-05-31T11:01:01.078Z,20.98
2018-05-31T11:02:01.260Z,20.98
2018-05-31T11:03:01.162Z,20.99
2018-05-31T11:04:01.217Z,20.98
2018-05-31T11:05:01.110Z,20.99
2018-05-31T11:06:01.110Z,21
2018-05-31T11:07:01.464Z,20.99
2018-05-31T11:08:01.160Z,21
2018-05-31T11:09:01.346Z,21
2018-05-31T11:10:01.289Z,21
2018-05-31T11:11:01.185Z,21.01
2018-05-31T11:12:01.301Z,21.01
2018-05-31T11:13:01.148Z,21
2018-05-31T11:14:01.116Z,21
2018-05-31T11:15:01.800Z,21.01
2018-05-31T11:16:01.171Z,21.01
2018-05-31T11:17:01.169Z,21.01
2018-05-31T11:18:01.308Z,21.01
2018-05-31T11:19:01.171Z,21.01
2018-05-31T11:20:01.151Z,21.01
2018-05-31T11:21:01.205Z,21.01
2018-05-31T11:22:01.213Z,21
2018-05-31T11:23:01.179Z,21
2018-05-31T11:24:01.221Z,21.01
2018-05-31T11:25:01.186Z,21
2018-05-31T11:26:01.234Z,21.01
2018-05-31T11:27:01.365Z,21.01
2018-05-31T11:28:01.158Z,21.01
2018-05-31T11:29:01.110Z,21.01
2018-05-31T11:30:01.331Z,21.01
2018-05-31T11:31:01.179Z,21.01
2018-05-31T11:32:01.157Z,21.01
2018-05-31T11:33:01.136Z,21.01
2018-05-31T11:34:01.165Z,21
2018-05-31T11:35:01.273Z,21.01
2018-05-31T11:36:01.214Z,21.01
2018-05-31T11:37:11.179Z,21.01
2018-05-31T11:38:01.322Z,21.01
2018-05-31T11:39:01.314Z,21.02
2018-05-31T11:40:01.312Z,21.02
2018-05-31T11:41:01.324Z,21.03
2018-05-31T11:42:01.341Z,21.02
2018-05-31T11:43:01.233Z,21.01
2018-05-31T11:44:01.359Z,21.01
2018-05-31T11:45:01.353Z,21
2018-05-31T11:46:01.250Z,21.01
2018-05-31T11:47:01.238Z,21
2018-05-31T11:48:00.929Z,21.01
2018-05-31T11:49:01.370Z,20.99
2018-05-31T11:50:01.374Z,20.99
2018-05-31T11:51:00.856Z,20.99
2018-05-31T11:52:00.814Z,20.98
2018-05-31T11:53:00.983Z,20.97
2018-05-31T11:54:00.951Z,20.97
2018-05-31T11:55:00.980Z,20.96
2018-05-31T11:56:01.354Z,20.96
2018-05-31T11:57:01.369Z,20.96
2018-05-31T11:58:00.950Z,20.95
2018-05-31T11:59:00.815Z,20.95
2018-05-31T12:00:00.862Z,20.96
2018-05-31T12:01:01.409Z,20.95
2018-05-31T12:02:00.880Z,20.95
2018-05-31T12:03:01.355Z,20.95
2018-05-31T12:04:00.847Z,20.95
2018-05-31T12:05:01.406Z,20.94
2018-05-31T12:06:00.840Z,20.93
2018-05-31T12:07:01.371Z,20.93
2018-05-31T12:08:01.017Z,20.92
2018-05-31T12:09:01.164Z,20.92
2018-05-31T12:10:01.002Z,20.91
2018-05-31T12:11:00.795Z,20.91
2018-05-31T12:12:01.029Z,20.91
2018-05-31T12:13:00.952Z,20.91
2018-05-31T12:14:01.087Z,20.9
2018-05-31T12:15:00.953Z,20.89
2018-05-31T12:16:00.797Z,20.89
2018-05-31T12:17:01.456Z,20.89
2018-05-31T12:18:00.913Z,20.89
2018-05-31T12:19:00.944Z,20.88
2018-05-31T12:20:00.876Z,20.88
2018-05-31T12:21:00.960Z,20.87
2018-05-31T12:22:01.460Z,20.87
2018-05-31T12:23:00.971Z,20.86
2018-05-31T12:24:00.917Z,20.86
2018-05-31T12:25:00.882Z,20.85
2018-05-31T12:26:01.145Z,20.85
2018-05-31T12:27:00.772Z,20.84
2018-05-31T12:28:01.151Z,20.84
2018-05-31T12:29:01.040Z,20.84
2018-05-31T12:30:00.867Z,20.83
2018-05-31T12:31:00.988Z,20.83
2018-05-31T12:32:00.964Z,20.83
2018-05-31T12:33:01.029Z,20.83
2018-05-31T12:34:01.101Z,20.83
2018-05-31T12:35:01.045Z,20.83
2018-05-31T12:36:00.850Z,20.83
2018-05-31T12:37:00.945Z,20.82
2018-05-31T12:38:01.042Z,20.82
2018-05-31T12:39:00.989Z,20.82
2018-05-31T12:40:01.001Z,20.81
2018-05-31T12:41:01.197Z,20.81
2018-05-31T12:42:00.935Z,20.81
2018-05-31T12:43:01.017Z,20.8
2018-05-31T12:44:01.049Z,20.8
2018-05-31T12:45:00.827Z,20.8
2018-05-31T12:46:00.951Z,20.8
2018-05-31T12:47:00.889Z,20.79
2018-05-31T12:48:00.954Z,20.8
2018-05-31T12:49:01.019Z,20.79
2018-05-31T12:50:00.927Z,20.79
2018-05-31T12:51:00.965Z,20.79
2018-05-31T12:52:00.880Z,20.79
2018-05-31T12:53:00.853Z,20.79
2018-05-31T12:54:00.900Z,20.79
2018-05-31T12:55:00.944Z,20.78
2018-05-31T12:56:01.105Z,20.79
2018-05-31T12:57:00.880Z,20.78
2018-05-31T12:58:00.781Z,20.78